Time;durP1;ratioP1;P1;durP2;ratioP2;P2;SDS_P1;SDS_P2;PMS_P1;PMS_P2;Temp;Humidity;BMP_temperature;BMP_pressure;BME280_temperature;BME280_humidity;BME280_pressure;Samples;Min_cycle;Max_cycle;Signal;HPM_P1;HPM_P2
2022/03/27 00:01:13;;;;;;;12.57;11.32;;;21.70;63.40;;;;;;6111786;28;88533;-70
2022/03/27 00:07:34;;;;;;;12.32;11.15;;;21.70;63.40;;;;;;6111733;28;87331;-71
2022/03/27 00:13:52;;;;;;;12.38;11.18;;;21.70;63.40;;;;;;6110381;28;88784;-71
2022/03/27 00:16:56;;;;;;;12.88;11.60;;;21.70;63.50;;;;;;6109997;28;89141;-70
2022/03/27 00:19:58;;;;;;;11.90;10.80;;;21.70;63.40;;;;;;6111709;28;89025;-70
2022/03/27 00:23:00;;;;;;;12.55;11.30;;;21.70;63.50;;;;;;6109478;28;88119;-70
2022/03/27 00:26:02;;;;;;;11.82;10.73;;;21.70;63.50;;;;;;6109734;28;89147;-71
2022/03/27 00:29:05;;;;;;;12.45;11.25;;;21.70;63.40;;;;;;6111454;28;89043;-70
2022/03/27 00:32:08;;;;;;;11.93;10.82;;;21.70;63.50;;;;;;6110326;28;88346;-71
2022/03/27 00:35:10;;;;;;;12.15;10.95;;;21.70;63.50;;;;;;6110391;28;89088;-70
2022/03/27 00:38:12;;;;;;;11.73;10.57;;;21.70;63.50;;;;;;6111374;28;89058;-71
2022/03/27 00:41:15;;;;;;;12.45;11.25;;;21.70;63.50;;;;;;6108364;28;89242;-71
2022/03/27 00:44:17;;;;;;;11.40;10.30;;;21.70;63.50;;;;;;6100264;28;89478;-70
2022/03/27 00:47:20;;;;;;;11.50;10.50;;;21.70;63.50;;;;;;6096215;28;89116;-71
2022/03/27 00:50:23;;;;;;;12.15;10.95;;;21.70;63.50;;;;;;6110627;28;89097;-70
2022/03/27 00:53:25;;;;;;;11.63;10.48;;;21.70;63.50;;;;;;6110880;28;89245;-70
2022/03/27 00:56:27;;;;;;;11.20;10.10;;;21.70;63.50;;;;;;6108754;28;89459;-70
2022/03/27 00:59:29;;;;;;;11.00;9.95;;;21.60;63.30;;;;;;6110297;28;89109;-70
2022/03/27 01:02:32;;;;;;;11.20;10.10;;;21.70;63.40;;;;;;6111557;28;88384;-70
2022/03/27 01:05:34;;;;;;;11.43;10.32;;;21.60;63.30;;;;;;6111678;28;88991;-69
2022/03/27 01:11:55;;;;;;;11.45;10.35;;;21.60;63.30;;;;;;6109611;28;88117;-70
2022/03/27 01:15:01;;;;;;;11.15;10.05;;;21.60;63.30;;;;;;6108526;28;88103;-70
2022/03/27 01:18:07;;;;;;;10.82;9.80;;;21.60;63.30;;;;;;6109295;28;89102;-70
2022/03/27 01:21:11;;;;;;;11.30;10.20;;;21.60;63.30;;;;;;6097648;28;89055;-70
2022/03/27 01:24:15;;;;;;;10.77;9.77;;;21.60;63.30;;;;;;6110656;28;89104;-71
2022/03/27 01:27:17;;;;;;;10.98;9.98;;;21.60;63.30;;;;;;6109890;28;89102;-70
2022/03/27 01:30:19;;;;;;;10.85;9.82;;;21.60;63.30;;;;;;6110288;28;89155;-71
2022/03/27 01:33:21;;;;;;;11.13;10.13;;;21.60;63.40;;;;;;6111221;28;88732;-70
2022/03/27 01:36:27;;;;;;;10.73;9.73;;;21.60;63.30;;;;;;6109128;28;89111;-70
2022/03/27 01:39:29;;;;;;;10.60;9.60;;;21.60;63.30;;;;;;6111577;28;87107;-70
2022/03/27 01:42:31;;;;;;;10.52;9.52;;;21.60;63.30;;;;;;6103095;28;90206;-70
2022/03/27 01:45:32;;;;;;;10.25;9.25;;;21.60;63.30;;;;;;6104508;28;89238;-70
2022/03/27 01:48:34;;;;;;;10.85;9.85;;;21.60;63.40;;;;;;6109466;28;88061;-70
2022/03/27 01:51:38;;;;;;;10.10;9.13;;;21.60;63.30;;;;;;6108845;28;89419;-70
2022/03/27 01:54:40;;;;;;;10.88;9.88;;;21.60;63.30;;;;;;6111099;28;89076;-71
2022/03/27 01:57:43;;;;;;;10.75;9.68;;;21.60;63.30;;;;;;6110491;28;89624;-70
2022/03/27 02:00:45;;;;;;;10.38;9.38;;;21.60;63.30;;;;;;6108907;28;89210;-70
2022/03/27 02:03:48;;;;;;;10.35;9.27;;;21.60;63.30;;;;;;6109341;28;88614;-70
2022/03/27 02:06:51;;;;;;;9.45;8.55;;;21.60;63.30;;;;;;6111389;28;89000;-70
2022/03/27 02:09:53;;;;;;;9.48;8.57;;;21.60;63.30;;;;;;6108417;28;89094;-70
2022/03/27 02:12:55;;;;;;;9.55;8.73;;;21.60;63.30;;;;;;6110433;28;90017;-70
2022/03/27 02:15:58;;;;;;;9.70;8.80;;;21.60;63.30;;;;;;6109869;28;88956;-70
2022/03/27 02:19:00;;;;;;;10.07;9.10;;;21.60;63.30;;;;;;6109893;28;89055;-70
2022/03/27 02:22:04;;;;;;;9.70;8.80;;;21.60;63.30;;;;;;6109389;28;89041;-70
2022/03/27 02:25:08;;;;;;;9.52;8.63;;;21.60;63.20;;;;;;6110281;28;89163;-70
2022/03/27 02:28:10;;;;;;;10.18;9.18;;;21.60;63.30;;;;;;6108465;28;89010;-70
2022/03/27 02:31:13;;;;;;;9.52;8.63;;;21.60;63.30;;;;;;6105446;28;87866;-71
2022/03/27 02:34:16;;;;;;;9.60;8.70;;;21.60;63.30;;;;;;6107336;28;88484;-71
2022/03/27 02:37:19;;;;;;;9.02;8.23;;;21.60;63.30;;;;;;6109644;28;89675;-69
2022/03/27 02:40:21;;;;;;;9.52;8.63;;;21.60;63.30;;;;;;6107999;28;89051;-71
2022/03/27 02:43:23;;;;;;;9.00;8.20;;;21.60;63.30;;;;;;6095361;28;90078;-70
2022/03/27 02:46:25;;;;;;;9.48;8.57;;;21.50;63.30;;;;;;6106808;28;88100;-70
2022/03/27 02:49:27;;;;;;;9.00;8.20;;;21.50;63.20;;;;;;6095790;28;89551;-70
2022/03/27 02:52:30;;;;;;;9.30;8.48;;;21.50;63.30;;;;;;6109556;28;89360;-70
2022/03/27 02:55:32;;;;;;;10.07;9.13;;;21.60;63.30;;;;;;6109177;28;89075;-70
2022/03/27 02:58:35;;;;;;;9.20;8.40;;;21.50;63.20;;;;;;6109652;28;89580;-70
2022/03/27 03:01:37;;;;;;;9.13;8.27;;;21.50;63.30;;;;;;6112399;28;88008;-70
2022/03/27 03:04:39;;;;;;;8.73;7.93;;;21.50;63.30;;;;;;6111025;28;88393;-71
2022/03/27 03:07:43;;;;;;;9.10;8.30;;;21.50;63.20;;;;;;6113859;28;87946;-71
2022/03/27 03:10:45;;;;;;;9.18;8.27;;;21.50;63.20;;;;;;6112661;28;88969;-71
2022/03/27 03:13:49;;;;;;;9.02;8.23;;;21.60;63.30;;;;;;6111688;28;90168;-70
2022/03/27 03:16:52;;;;;;;8.85;8.02;;;21.50;63.20;;;;;;6113075;28;89632;-70
2022/03/27 03:19:54;;;;;;;8.70;7.93;;;21.60;63.30;;;;;;6113146;28;89065;-71
2022/03/27 03:22:58;;;;;;;9.07;8.27;;;21.60;63.20;;;;;;6111634;28;89002;-70
2022/03/27 03:26:00;;;;;;;8.80;8.00;;;21.60;63.20;;;;;;6111553;28;89086;-70
2022/03/27 03:29:02;;;;;;;8.57;7.78;;;21.60;63.20;;;;;;6090734;28;87960;-69
2022/03/27 03:32:05;;;;;;;8.52;7.72;;;21.50;63.20;;;;;;6112271;28;89052;-70
2022/03/27 03:35:07;;;;;;;8.15;7.45;;;21.50;63.20;;;;;;6113571;28;88307;-70
2022/03/27 03:38:11;;;;;;;8.63;7.82;;;21.60;63.20;;;;;;6110859;28;89145;-70
2022/03/27 03:41:13;;;;;;;8.60;7.80;;;21.50;63.20;;;;;;6112339;28;89097;-71
2022/03/27 03:44:15;;;;;;;8.13;7.43;;;21.60;63.20;;;;;;6100286;28;90004;-70
2022/03/27 03:47:17;;;;;;;8.52;7.72;;;21.50;63.20;;;;;;6113258;28;89099;-70
2022/03/27 03:50:19;;;;;;;8.48;7.68;;;21.60;63.20;;;;;;6111151;28;89352;-70
2022/03/27 03:53:24;;;;;;;8.00;7.20;;;21.60;63.20;;;;;;6112178;28;87926;-71
2022/03/27 03:56:25;;;;;;;7.82;7.13;;;21.60;63.30;;;;;;6112848;28;89073;-71
2022/03/27 03:59:28;;;;;;;8.32;7.53;;;21.60;63.30;;;;;;6113289;28;89214;-70
2022/03/27 04:02:29;;;;;;;8.40;7.60;;;21.60;63.20;;;;;;6112805;28;89196;-70
2022/03/27 04:05:32;;;;;;;8.40;7.60;;;21.60;63.20;;;;;;6111527;28;88359;-70
2022/03/27 04:08:36;;;;;;;8.07;7.38;;;21.60;63.20;;;;;;6113724;28;89174;-70
2022/03/27 04:11:38;;;;;;;8.05;7.25;;;21.60;63.20;;;;;;6105860;28;89129;-69
2022/03/27 04:14:40;;;;;;;8.70;7.90;;;21.60;63.20;;;;;;6103970;28;90036;-70
2022/03/27 04:17:45;;;;;;;8.32;7.53;;;21.60;63.20;;;;;;6111253;28;88207;-69
2022/03/27 04:20:47;;;;;;;8.52;7.72;;;21.60;63.30;;;;;;6112265;28;88836;-70
2022/03/27 04:23:50;;;;;;;8.65;7.82;;;21.60;63.30;;;;;;6112318;28;89045;-69
2022/03/27 04:26:52;;;;;;;9.15;8.35;;;21.60;63.30;;;;;;6110847;28;89103;-70
2022/03/27 04:29:54;;;;;;;8.85;8.00;;;21.60;63.30;;;;;;6113117;28;89092;-69
2022/03/27 04:32:56;;;;;;;8.43;7.60;;;21.60;63.30;;;;;;6112353;28;89392;-70
2022/03/27 04:35:58;;;;;;;8.65;7.85;;;21.60;63.30;;;;;;6110800;28;88391;-69
2022/03/27 04:39:02;;;;;;;8.68;7.88;;;21.60;63.30;;;;;;6112007;28;88794;-69
2022/03/27 04:42:04;;;;;;;8.63;7.88;;;21.60;63.30;;;;;;6109785;28;89419;-70
2022/03/27 04:45:07;;;;;;;8.98;8.18;;;21.60;63.20;;;;;;6110962;28;90064;-69
2022/03/27 04:48:09;;;;;;;8.93;8.13;;;21.60;63.20;;;;;;6102762;28;89128;-70
2022/03/27 04:51:12;;;;;;;8.80;7.90;;;21.60;63.20;;;;;;6105182;28;87975;-69
2022/03/27 04:54:15;;;;;;;9.90;8.90;;;21.60;63.20;;;;;;6109872;28;89169;-70
2022/03/27 04:57:17;;;;;;;9.88;8.98;;;21.60;63.20;;;;;;6111081;28;89034;-71
2022/03/27 05:00:19;;;;;;;9.80;8.90;;;21.60;63.20;;;;;;6107600;28;89244;-70
2022/03/27 05:03:21;;;;;;;10.48;9.48;;;21.60;63.20;;;;;;6101164;28;87975;-70
2022/03/27 05:06:23;;;;;;;9.75;8.85;;;21.60;63.20;;;;;;6111386;28;88230;-70
2022/03/27 05:09:27;;;;;;;10.70;9.70;;;21.60;63.20;;;;;;6097491;28;89422;-70
2022/03/27 05:12:29;;;;;;;10.10;9.20;;;21.60;63.20;;;;;;6110441;28;89029;-70
2022/03/27 05:15:30;;;;;;;11.32;10.20;;;21.60;63.20;;;;;;6109080;28;89073;-70
2022/03/27 05:18:32;;;;;;;11.27;10.18;;;21.60;63.20;;;;;;6109725;28;89345;-70
2022/03/27 05:21:36;;;;;;;12.30;11.10;;;21.60;63.20;;;;;;6109512;28;89077;-70
2022/03/27 05:24:39;;;;;;;11.32;10.23;;;21.60;63.20;;;;;;6103325;28;89220;-71
2022/03/27 05:27:46;;;;;;;11.77;10.68;;;21.60;63.20;;;;;;6098856;28;89006;-70
2022/03/27 05:30:48;;;;;;;12.38;11.18;;;21.60;63.20;;;;;;6102718;28;87934;-70
2022/03/27 05:33:50;;;;;;;12.10;10.90;;;21.60;63.20;;;;;;6096021;28;89007;-70
2022/03/27 05:36:52;;;;;;;12.43;11.23;;;21.60;63.20;;;;;;6095199;28;88395;-70
2022/03/27 05:39:55;;;;;;;12.88;11.57;;;21.60;63.20;;;;;;6108215;28;88029;-70
2022/03/27 05:42:57;;;;;;;13.38;12.07;;;21.60;63.20;;;;;;6107717;28;88129;-70
2022/03/27 05:45:59;;;;;;;12.55;11.25;;;21.60;63.20;;;;;;6109946;28;90027;-70
2022/03/27 05:49:01;;;;;;;12.40;11.20;;;21.60;63.10;;;;;;6108228;28;89157;-70
2022/03/27 05:52:03;;;;;;;12.18;10.98;;;21.60;63.10;;;;;;6107805;28;89293;-69
2022/03/27 05:55:08;;;;;;;13.13;11.88;;;21.60;63.00;;;;;;6108727;28;89243;-70
2022/03/27 05:58:10;;;;;;;13.15;11.85;;;21.60;63.10;;;;;;6109847;28;89030;-70
2022/03/27 06:01:12;;;;;;;12.88;11.68;;;21.60;63.10;;;;;;6108953;28;87037;-70
2022/03/27 06:04:14;;;;;;;12.80;11.50;;;21.60;63.10;;;;;;6108078;28;87969;-70
2022/03/27 06:07:16;;;;;;;12.95;11.68;;;21.60;63.00;;;;;;6108108;28;86341;-71
2022/03/27 06:10:22;;;;;;;13.00;11.70;;;21.70;63.00;;;;;;6109354;28;88206;-69
2022/03/27 06:13:24;;;;;;;12.88;11.68;;;21.70;63.00;;;;;;6106488;28;89031;-70
2022/03/27 06:16:26;;;;;;;13.52;12.15;;;21.60;63.00;;;;;;6109080;28;90004;-70
2022/03/27 06:19:30;;;;;;;13.45;12.15;;;21.70;63.10;;;;;;6109722;28;89083;-70
2022/03/27 06:22:32;;;;;;;13.15;11.88;;;21.70;63.10;;;;;;6108114;28;89308;-70
2022/03/27 06:25:38;;;;;;;13.55;12.23;;;21.70;63.10;;;;;;6107553;28;89081;-70
2022/03/27 06:28:39;;;;;;;13.73;12.43;;;21.70;63.10;;;;;;6108727;28;88901;-69
2022/03/27 06:31:42;;;;;;;13.38;11.98;;;21.70;63.20;;;;;;6094152;28;89245;-71
2022/03/27 06:34:44;;;;;;;13.23;11.93;;;21.70;63.20;;;;;;6108438;28;87836;-71
2022/03/27 06:37:46;;;;;;;12.95;11.65;;;21.70;63.20;;;;;;6108647;28;88368;-70
2022/03/27 06:40:50;;;;;;;13.48;12.15;;;21.70;63.20;;;;;;6106221;28;89660;-70
2022/03/27 06:43:52;;;;;;;12.88;11.63;;;21.70;63.20;;;;;;6098302;28;89047;-71
2022/03/27 06:46:54;;;;;;;14.18;12.77;;;21.70;63.10;;;;;;6095473;28;90012;-70
2022/03/27 06:49:57;;;;;;;12.80;11.57;;;21.70;63.10;;;;;;6106997;28;89109;-70
2022/03/27 06:52:59;;;;;;;13.23;11.93;;;21.70;63.10;;;;;;6107838;28;89117;-70
2022/03/27 06:56:03;;;;;;;12.75;11.55;;;21.80;63.20;;;;;;6108540;28;89071;-70
2022/03/27 06:59:05;;;;;;;12.40;11.20;;;21.80;63.20;;;;;;6108782;28;87838;-71
2022/03/27 07:05:27;;;;;;;11.98;10.77;;;21.70;63.00;;;;;;6096354;28;87343;-71
2022/03/27 07:08:29;;;;;;;12.10;11.00;;;21.70;63.10;;;;;;6103929;28;87303;-71
2022/03/27 07:11:32;;;;;;;12.38;11.13;;;21.70;63.10;;;;;;6101108;28;90736;-70
2022/03/27 07:14:34;;;;;;;12.77;11.50;;;21.70;63.20;;;;;;6105910;28;89085;-69
2022/03/27 07:17:44;;;;;;;12.63;11.40;;;21.70;63.20;;;;;;6097181;28;90028;-70
2022/03/27 07:20:47;;;;;;;12.40;11.20;;;21.70;63.20;;;;;;6108167;28;88765;-71
2022/03/27 07:23:49;;;;;;;12.15;11.05;;;21.70;63.30;;;;;;6107780;28;89267;-70
2022/03/27 07:26:52;;;;;;;12.80;11.50;;;21.70;63.30;;;;;;6107251;28;89096;-71
2022/03/27 07:29:54;;;;;;;12.20;11.00;;;21.70;63.30;;;;;;6108780;28;89489;-70
2022/03/27 07:32:57;;;;;;;11.80;10.60;;;21.70;63.40;;;;;;6106474;28;88140;-71
2022/03/27 07:35:59;;;;;;;11.50;10.35;;;21.70;63.50;;;;;;6108309;28;89198;-70
2022/03/27 07:39:01;;;;;;;12.05;10.27;;;21.80;63.50;;;;;;6105870;28;88343;-70
2022/03/27 07:42:05;;;;;;;11.98;10.82;;;21.70;63.40;;;;;;6104727;28;89057;-70
2022/03/27 07:45:09;;;;;;;11.85;10.68;;;21.70;63.50;;;;;;6106517;28;89200;-70
2022/03/27 07:48:11;;;;;;;11.43;10.35;;;21.70;63.50;;;;;;6111005;28;89963;-70
2022/03/27 07:51:13;;;;;;;11.00;9.90;;;21.80;63.60;;;;;;6111590;28;89162;-70
2022/03/27 07:54:15;;;;;;;11.23;10.02;;;21.80;63.60;;;;;;6099704;28;89068;-70
2022/03/27 07:57:20;;;;;;;11.25;10.15;;;21.80;63.50;;;;;;6111210;28;89030;-70
2022/03/27 08:00:22;;;;;;;11.38;10.27;;;21.80;63.60;;;;;;6111705;28;89054;-70
2022/03/27 08:03:24;;;;;;;11.00;9.90;;;21.80;63.60;;;;;;6112705;28;89041;-70
2022/03/27 08:06:47;;;;;;;11.18;10.18;;;21.80;63.70;;;;;;6112549;28;88359;-70
2022/03/27 08:09:49;;;;;;;10.90;9.90;;;21.80;63.70;;;;;;6098560;28;87331;-70
2022/03/27 08:12:52;;;;;;;10.77;9.77;;;21.80;63.70;;;;;;6109354;28;89150;-70
2022/03/27 08:15:55;;;;;;;10.50;9.50;;;21.80;63.70;;;;;;6101447;28;89097;-69
2022/03/27 08:18:56;;;;;;;10.48;9.45;;;21.80;63.70;;;;;;6110124;28;90295;-71
2022/03/27 08:22:00;;;;;;;10.52;9.52;;;21.80;63.70;;;;;;6111041;28;89157;-71
2022/03/27 08:25:02;;;;;;;10.45;9.45;;;21.80;63.70;;;;;;6098569;28;88364;-70
2022/03/27 08:28:06;;;;;;;10.38;9.40;;;21.80;63.80;;;;;;6112401;28;89428;-69
2022/03/27 08:31:08;;;;;;;10.75;9.73;;;21.80;64.70;;;;;;6110219;28;89098;-69
2022/03/27 08:34:10;;;;;;;10.32;9.32;;;21.80;63.80;;;;;;6110986;28;89405;-70
2022/03/27 08:37:14;;;;;;;10.73;9.73;;;21.80;63.80;;;;;;6112767;28;89133;-69
2022/03/27 08:40:20;;;;;;;10.55;9.60;;;21.80;63.90;;;;;;6109360;28;88250;-70
2022/03/27 08:43:23;;;;;;;10.13;9.13;;;21.80;64.00;;;;;;6097946;28;89091;-69
2022/03/27 08:46:27;;;;;;;9.85;8.95;;;21.80;64.00;;;;;;6111536;28;89121;-69
2022/03/27 08:49:37;;;;;;;9.27;8.38;;;21.80;64.00;;;;;;6110023;28;88973;-69
2022/03/27 08:52:53;;;;;;;10.30;9.30;;;21.80;64.10;;;;;;6099606;28;89010;-69
2022/03/27 08:55:58;;;;;;;10.10;9.18;;;21.80;64.20;;;;;;6112596;28;88059;-69
2022/03/27 08:59:07;;;;;;;9.93;9.02;;;21.80;64.10;;;;;;6111367;28;89071;-69
2022/03/27 09:02:09;;;;;;;9.68;8.68;;;21.80;64.10;;;;;;6110144;28;89040;-69
2022/03/27 09:05:11;;;;;;;9.48;8.57;;;21.80;64.10;;;;;;6111485;28;89068;-69
2022/03/27 09:08:13;;;;;;;9.57;8.68;;;21.80;64.10;;;;;;6097205;28;89313;-69
2022/03/27 09:11:17;;;;;;;9.75;8.75;;;21.80;64.10;;;;;;6111632;28;88468;-69
2022/03/27 09:14:21;;;;;;;10.63;8.73;;;21.80;64.00;;;;;;6109615;28;89262;-69
2022/03/27 09:17:23;;;;;;;10.05;9.05;;;21.80;64.10;;;;;;6098762;28;89187;-69
2022/03/27 09:20:37;;;;;;;9.68;8.68;;;21.80;64.20;;;;;;6097711;28;89918;-69
2022/03/27 09:23:39;;;;;;;9.02;8.23;;;21.80;64.20;;;;;;6109323;28;89052;-69
2022/03/27 09:27:00;;;;;;;9.68;8.68;;;21.80;64.20;;;;;;6112019;28;89230;-69
2022/03/27 09:30:07;;;;;;;9.23;8.38;;;21.80;64.20;;;;;;6112397;28;89318;-68
2022/03/27 09:33:09;;;;;;;9.30;8.40;;;21.80;64.20;;;;;;6111317;28;89255;-70
2022/03/27 09:36:13;;;;;;;9.40;8.50;;;21.80;64.30;;;;;;6110701;28;89089;-69
2022/03/27 09:39:16;;;;;;;9.23;8.30;;;21.80;64.30;;;;;;6110647;28;87601;-69
2022/03/27 09:42:18;;;;;;;9.55;8.65;;;21.80;64.40;;;;;;6088651;28;88561;-69
2022/03/27 09:45:25;;;;;;;8.75;7.95;;;21.80;64.40;;;;;;6099635;28;88290;-69
2022/03/27 09:48:28;;;;;;;8.85;7.95;;;21.80;64.40;;;;;;6098289;28;89033;-69
2022/03/27 09:51:30;;;;;;;8.25;7.55;;;21.80;64.40;;;;;;6110110;28;91046;-69
2022/03/27 09:54:47;;;;;;;9.23;8.32;;;21.80;64.40;;;;;;6111152;28;88926;-69
2022/03/27 09:57:58;;;;;;;9.40;8.40;;;21.80;64.40;;;;;;6098081;28;89083;-68
2022/03/27 10:01:10;;;;;;;8.77;7.88;;;21.80;64.50;;;;;;6101038;28;87961;-69
2022/03/27 10:04:16;;;;;;;8.60;7.80;;;21.80;64.40;;;;;;6109000;28;89061;-70
2022/03/27 10:07:18;;;;;;;8.68;7.88;;;21.80;64.50;;;;;;6110396;28;88971;-70
2022/03/27 10:10:22;;;;;;;8.52;7.80;;;21.80;64.40;;;;;;6103364;28;88996;-69
2022/03/27 10:13:27;;;;;;;8.20;7.40;;;21.80;64.40;;;;;;6103621;28;88368;-69
2022/03/27 10:16:33;;;;;;;8.45;7.65;;;21.90;64.40;;;;;;6109766;28;89031;-69
2022/03/27 10:19:43;;;;;;;8.48;7.68;;;21.90;64.40;;;;;;6109652;28;89014;-70
2022/03/27 10:22:47;;;;;;;8.15;7.43;;;21.90;64.30;;;;;;6109313;28;89382;-69
2022/03/27 10:25:51;;;;;;;8.75;7.88;;;21.90;64.30;;;;;;6108651;28;89093;-70
2022/03/27 10:28:54;;;;;;;8.57;7.68;;;21.90;64.40;;;;;;6109416;28;89139;-69
2022/03/27 10:32:02;;;;;;;8.40;7.60;;;21.90;64.40;;;;;;6110983;28;89576;-70
2022/03/27 10:35:26;;;;;;;8.32;7.53;;;21.90;64.40;;;;;;6109253;28;88036;-69
2022/03/27 10:38:43;;;;;;;7.50;6.80;;;21.90;64.40;;;;;;6094288;28;89097;-70
2022/03/27 10:41:54;;;;;;;7.80;7.07;;;21.90;64.40;;;;;;6107595;28;89175;-70
2022/03/27 10:44:59;;;;;;;8.23;7.43;;;21.90;64.40;;;;;;6109300;28;88306;-69
2022/03/27 10:48:13;;;;;;;8.10;7.30;;;21.90;64.40;;;;;;6109246;28;89365;-69
2022/03/27 10:51:36;;;;;;;8.27;7.57;;;21.90;64.40;;;;;;6109323;28;89218;-69
2022/03/27 10:54:59;;;;;;;8.10;7.38;;;21.90;64.50;;;;;;6107850;28;90142;-69
2022/03/27 10:58:01;;;;;;;7.90;7.10;;;21.90;64.40;;;;;;6109074;28;87955;-69
2022/03/27 11:01:06;;;;;;;7.70;6.90;;;21.90;64.50;;;;;;6095604;28;87972;-69
2022/03/27 11:04:11;;;;;;;7.55;6.78;;;21.90;64.40;;;;;;6109193;28;89062;-69
2022/03/27 11:07:22;;;;;;;8.02;7.22;;;21.90;64.40;;;;;;6108941;28;89030;-69
2022/03/27 11:10:42;;;;;;;7.43;6.60;;;21.90;64.40;;;;;;6110218;28;89373;-69
2022/03/27 11:13:45;;;;;;;7.65;6.95;;;21.90;64.50;;;;;;6107800;28;89085;-69
2022/03/27 11:17:11;;;;;;;8.70;7.40;;;21.90;64.50;;;;;;6095769;28;87360;-69
2022/03/27 11:20:50;;;;;;;7.32;6.63;;;22.00;64.50;;;;;;6095100;28;89123;-70
2022/03/27 11:23:52;;;;;;;7.80;7.00;;;21.90;64.40;;;;;;6111935;28;88886;-69
2022/03/27 11:26:54;;;;;;;7.30;6.70;;;21.90;64.40;;;;;;6111519;28;90061;-69
2022/03/27 11:30:10;;;;;;;7.13;6.43;;;22.00;64.40;;;;;;6114015;28;89224;-69
2022/03/27 11:33:19;;;;;;;7.05;6.45;;;22.00;64.50;;;;;;6101240;28;89188;-70
2022/03/27 11:36:26;;;;;;;6.95;6.35;;;22.00;64.90;;;;;;6099168;28;89177;-69
2022/03/27 11:39:34;;;;;;;6.93;6.32;;;22.00;64.50;;;;;;6104718;28;88002;-69
2022/03/27 11:42:37;;;;;;;7.60;6.90;;;21.90;64.40;;;;;;6113498;28;88802;-68
2022/03/27 11:45:40;;;;;;;7.03;6.43;;;22.00;64.50;;;;;;6099476;28;89512;-69
2022/03/27 11:48:42;;;;;;;7.15;6.38;;;22.00;64.60;;;;;;6113485;28;88376;-69
2022/03/27 11:51:45;;;;;;;7.03;6.32;;;22.00;64.60;;;;;;6112441;28;89163;-68
2022/03/27 11:54:48;;;;;;;7.03;6.32;;;21.90;64.60;;;;;;6111876;28;89158;-69
2022/03/27 11:57:53;;;;;;;6.90;6.30;;;22.00;64.60;;;;;;6103294;28;90048;-69
2022/03/27 12:01:02;;;;;;;7.05;6.35;;;22.00;64.60;;;;;;6108874;28;89466;-69
2022/03/27 12:04:07;;;;;;;6.47;5.88;;;22.00;64.70;;;;;;6112476;28;89557;-69
2022/03/27 12:07:11;;;;;;;6.97;6.38;;;22.00;64.70;;;;;;6098157;28;89023;-68
2022/03/27 12:10:13;;;;;;;6.82;6.22;;;21.90;64.60;;;;;;6113713;28;89656;-69
2022/03/27 12:13:15;;;;;;;6.07;5.55;;;22.00;64.70;;;;;;6111669;28;89124;-69
2022/03/27 12:16:20;;;;;;;6.43;5.82;;;22.00;64.70;;;;;;6110961;28;89147;-69
2022/03/27 12:19:22;;;;;;;6.50;5.90;;;22.00;64.70;;;;;;6102597;28;88452;-69
2022/03/27 12:22:35;;;;;;;6.65;6.05;;;22.00;64.70;;;;;;6112788;28;89076;-69
2022/03/27 12:25:37;;;;;;;6.20;5.70;;;22.00;64.70;;;;;;6098542;28;87932;-69
2022/03/27 12:32:00;;;;;;;6.28;5.68;;;22.00;64.70;;;;;;6110695;28;87348;-69
2022/03/27 12:35:02;;;;;;;6.15;5.55;;;22.00;64.70;;;;;;6112819;28;89071;-68
2022/03/27 12:38:05;;;;;;;6.05;5.45;;;22.00;64.70;;;;;;6111558;28;89140;-68
2022/03/27 12:41:08;;;;;;;6.88;6.00;;;22.00;64.60;;;;;;6107695;28;89093;-69
2022/03/27 12:44:10;;;;;;;6.35;5.75;;;22.00;64.70;;;;;;6102853;28;88054;-68
2022/03/27 12:47:12;;;;;;;5.80;5.30;;;22.00;64.60;;;;;;6097155;28;89032;-69
2022/03/27 12:50:29;;;;;;;6.65;5.95;;;22.00;64.60;;;;;;6114347;28;87328;-69
2022/03/27 12:53:32;;;;;;;6.10;5.60;;;22.00;64.60;;;;;;6101999;28;89174;-69
2022/03/27 12:56:34;;;;;;;6.10;5.60;;;22.00;64.70;;;;;;6110245;28;89156;-69
2022/03/27 12:59:43;;;;;;;5.93;5.43;;;22.00;64.70;;;;;;6112115;28;90128;-69
2022/03/27 13:02:45;;;;;;;5.88;5.38;;;22.00;64.70;;;;;;6110561;28;89101;-68
2022/03/27 13:06:01;;;;;;;6.13;5.50;;;22.00;64.70;;;;;;6112327;28;89053;-69
2022/03/27 13:09:07;;;;;;;5.80;5.30;;;22.00;65.60;;;;;;6110516;28;89089;-68
2022/03/27 13:12:12;;;;;;;5.90;5.40;;;22.00;64.70;;;;;;6099072;28;88839;-69
2022/03/27 13:15:15;;;;;;;6.15;5.55;;;22.00;64.70;;;;;;6110541;28;89088;-69
2022/03/27 13:18:17;;;;;;;5.68;5.18;;;22.00;64.70;;;;;;6111600;28;89202;-69
2022/03/27 13:21:19;;;;;;;6.20;5.60;;;22.00;64.80;;;;;;6105404;28;88484;-69
2022/03/27 13:24:24;;;;;;;6.13;5.53;;;22.00;64.70;;;;;;6103523;28;89000;-69
2022/03/27 13:27:26;;;;;;;5.88;5.38;;;22.00;64.70;;;;;;6110685;28;88970;-69
2022/03/27 13:30:29;;;;;;;5.70;5.20;;;22.00;64.70;;;;;;6110831;28;89962;-69
2022/03/27 13:33:31;;;;;;;5.75;5.25;;;22.00;64.70;;;;;;6110898;28;89432;-69
2022/03/27 13:36:33;;;;;;;5.43;4.93;;;22.00;64.80;;;;;;6111816;28;87968;-68
2022/03/27 13:39:36;;;;;;;5.57;5.07;;;22.00;64.80;;;;;;6108155;28;89286;-69
2022/03/27 13:45:58;;;;;;;5.57;5.07;;;22.00;64.70;;;;;;6103614;28;87423;-69
2022/03/27 13:49:00;;;;;;;5.60;5.10;;;22.00;64.70;;;;;;6109371;28;88037;-69
2022/03/27 13:52:02;;;;;;;5.82;5.28;;;22.00;64.60;;;;;;6100951;28;87179;-69
2022/03/27 13:55:06;;;;;;;5.63;5.13;;;22.00;64.50;;;;;;6109496;28;89372;-69
2022/03/27 13:58:08;;;;;;;5.47;5.05;;;22.00;64.50;;;;;;6110041;28;89022;-69
2022/03/27 14:01:10;;;;;;;5.43;4.93;;;22.00;64.60;;;;;;6110489;28;90053;-69
2022/03/27 14:04:14;;;;;;;5.20;4.70;;;22.00;64.50;;;;;;6110620;28;89092;-69
2022/03/27 14:07:16;;;;;;;5.40;4.90;;;22.00;64.70;;;;;;6096905;28;89146;-70
2022/03/27 14:10:19;;;;;;;5.40;4.90;;;22.00;64.60;;;;;;6109303;28;89289;-69
2022/03/27 14:13:21;;;;;;;5.05;4.65;;;22.00;64.70;;;;;;6111335;28;89192;-69
2022/03/27 14:16:24;;;;;;;5.40;4.90;;;22.00;64.60;;;;;;6097325;28;89133;-69
2022/03/27 14:19:26;;;;;;;5.07;4.65;;;22.00;64.70;;;;;;6108971;28;89014;-69
2022/03/27 14:22:28;;;;;;;5.35;4.95;;;22.00;64.70;;;;;;6108662;28;88265;-68
2022/03/27 14:25:32;;;;;;;5.05;4.60;;;22.00;64.70;;;;;;6110653;28;89258;-69
2022/03/27 14:28:35;;;;;;;4.65;4.25;;;22.00;64.70;;;;;;6110072;28;89168;-68
2022/03/27 14:31:37;;;;;;;5.43;4.93;;;22.00;64.70;;;;;;6109028;28;90024;-69
2022/03/27 14:34:39;;;;;;;4.70;4.30;;;22.00;64.60;;;;;;6109904;28;89121;-69
2022/03/27 14:37:41;;;;;;;4.65;4.28;;;22.00;64.70;;;;;;6107170;28;89376;-69
2022/03/27 14:40:45;;;;;;;5.38;4.55;;;22.00;64.70;;;;;;6110435;28;89023;-69
2022/03/27 14:43:47;;;;;;;5.22;4.72;;;22.00;64.70;;;;;;6108883;28;89059;-69
2022/03/27 14:46:49;;;;;;;5.10;4.60;;;22.00;64.60;;;;;;6108118;28;89138;-69
2022/03/27 14:49:51;;;;;;;5.13;4.72;;;22.00;64.60;;;;;;6110224;28;89137;-69
2022/03/27 14:52:54;;;;;;;5.15;4.65;;;22.10;64.70;;;;;;6110485;28;87558;-69
2022/03/27 14:55:59;;;;;;;4.60;4.20;;;22.10;64.70;;;;;;6109865;28;89129;-69
2022/03/27 14:59:01;;;;;;;4.93;4.53;;;22.00;64.60;;;;;;6113314;28;88081;-69
2022/03/27 15:02:04;;;;;;;4.40;4.00;;;22.00;64.50;;;;;;6111939;28;89998;-69
2022/03/27 15:05:08;;;;;;;4.82;4.43;;;22.00;64.50;;;;;;6114933;28;89135;-69
2022/03/27 15:08:10;;;;;;;4.75;4.35;;;22.10;64.50;;;;;;6112481;28;89503;-70
2022/03/27 15:11:13;;;;;;;4.60;4.20;;;22.10;64.50;;;;;;6113722;28;88779;-69
2022/03/27 15:14:15;;;;;;;5.05;4.50;;;22.00;64.40;;;;;;6113254;28;89416;-69
2022/03/27 15:17:17;;;;;;;4.82;4.43;;;22.10;64.40;;;;;;6112934;28;87991;-69
2022/03/27 15:20:19;;;;;;;4.72;4.32;;;22.10;64.50;;;;;;6113849;28;89060;-69
2022/03/27 15:23:22;;;;;;;4.57;4.18;;;22.10;64.50;;;;;;6113520;28;88509;-69
2022/03/27 15:26:25;;;;;;;4.50;4.05;;;22.10;64.50;;;;;;6112593;28;87902;-70
2022/03/27 15:32:46;;;;;;;4.78;4.30;;;22.10;64.50;;;;;;6111685;28;88856;-70
2022/03/27 15:35:48;;;;;;;4.45;4.05;;;22.10;64.50;;;;;;6100024;28;89064;-69
2022/03/27 15:38:50;;;;;;;5.25;4.40;;;22.00;64.40;;;;;;6112073;28;89077;-70
2022/03/27 15:41:55;;;;;;;4.65;4.25;;;22.10;65.40;;;;;;6101670;28;89432;-70
2022/03/27 15:44:57;;;;;;;4.50;4.18;;;22.10;64.50;;;;;;6110249;28;89156;-69
2022/03/27 15:48:00;;;;;;;4.50;4.10;;;22.10;64.50;;;;;;6104465;28;87986;-69
2022/03/27 15:51:02;;;;;;;4.43;4.03;;;22.10;64.50;;;;;;6088857;28;89754;-69
2022/03/27 15:54:04;;;;;;;4.10;3.80;;;22.00;64.50;;;;;;6103485;28;88587;-69
2022/03/27 15:57:08;;;;;;;3.90;3.60;;;22.10;64.50;;;;;;6105124;28;88041;-69
2022/03/27 16:00:10;;;;;;;4.15;3.75;;;22.00;64.40;;;;;;6099103;28;89464;-70
2022/03/27 16:03:12;;;;;;;3.75;3.45;;;22.10;64.50;;;;;;6111900;28;90227;-69
2022/03/27 16:06:14;;;;;;;4.20;3.90;;;22.10;64.50;;;;;;6100996;28;89265;-69
2022/03/27 16:09:16;;;;;;;4.05;3.75;;;22.10;64.50;;;;;;6111265;28;91121;-70
2022/03/27 16:12:20;;;;;;;4.25;3.88;;;22.10;64.50;;;;;;6110735;28;89378;-69